Time;durP1;ratioP1;P1;durP2;ratioP2;P2;SDS_P1;SDS_P2;PMS_P1;PMS_P2;Temp;Humidity;BMP_temperature;BMP_pressure;BME280_temperature;BME280_humidity;BME280_pressure;Samples;Min_cycle;Max_cycle;Signal;HPM_P1;HPM_P2
2021/09/07 00:00:34;;;;;;;29.33;17.80;;;16.90;99.90;;;;;;5087858;28;20227;-74
2021/09/07 00:03:01;;;;;;;30.60;18.27;;;16.80;99.90;;;;;;5085636;28;20286;-75
2021/09/07 00:05:28;;;;;;;35.17;19.13;;;16.80;99.90;;;;;;5086332;28;20286;-75
2021/09/07 00:07:55;;;;;;;39.13;18.57;;;16.80;99.90;;;;;;5087066;28;20227;-75
2021/09/07 00:10:23;;;;;;;30.60;17.43;;;16.80;99.90;;;;;;5083643;28;20603;-75
2021/09/07 00:12:50;;;;;;;31.07;17.60;;;16.70;99.90;;;;;;5087536;28;20740;-75
2021/09/07 00:15:18;;;;;;;35.30;18.90;;;16.70;99.90;;;;;;5087133;28;20246;-75
2021/09/07 00:17:46;;;;;;;29.03;17.77;;;16.70;99.90;;;;;;5085825;28;20234;-75
2021/09/07 00:20:15;;;;;;;36.57;20.17;;;16.70;99.90;;;;;;5085640;28;20199;-75
2021/09/07 00:22:43;;;;;;;36.53;19.77;;;16.70;99.90;;;;;;5082322;28;20672;-75
2021/09/07 00:25:11;;;;;;;32.70;18.63;;;16.60;99.90;;;;;;5086423;28;20202;-75
2021/09/07 00:27:39;;;;;;;36.97;19.43;;;16.60;99.90;;;;;;5087204;28;20611;-75
2021/09/07 00:30:07;;;;;;;32.70;19.57;;;16.50;99.90;;;;;;5085955;28;20231;-75
2021/09/07 00:32:34;;;;;;;33.90;18.47;;;16.60;99.90;;;;;;5085316;28;20206;-75
2021/09/07 00:35:01;;;;;;;34.87;19.63;;;16.60;99.90;;;;;;5082148;28;20302;-75
2021/09/07 00:37:28;;;;;;;33.23;19.13;;;16.50;99.90;;;;;;5085438;28;20249;-75
2021/09/07 00:39:55;;;;;;;37.70;19.57;;;16.60;99.90;;;;;;5087313;28;20246;-75
2021/09/07 00:42:22;;;;;;;34.63;19.63;;;16.70;99.90;;;;;;5081595;28;20880;-75
2021/09/07 00:44:50;;;;;;;41.50;20.20;;;16.60;99.90;;;;;;5085959;28;20745;-75
2021/09/07 00:47:17;;;;;;;34.37;18.80;;;16.60;99.90;;;;;;5085625;28;20279;-75
2021/09/07 00:49:44;;;;;;;34.00;19.23;;;16.60;99.90;;;;;;5082610;28;20303;-75
2021/09/07 00:52:11;;;;;;;39.43;19.80;;;16.60;99.90;;;;;;5085360;28;20357;-75
2021/09/07 00:54:39;;;;;;;35.97;18.97;;;16.70;99.90;;;;;;5076873;28;20279;-75
2021/09/07 00:57:08;;;;;;;34.73;18.83;;;16.70;99.90;;;;;;5084882;28;20286;-75
2021/09/07 00:59:36;;;;;;;35.43;20.63;;;16.70;99.90;;;;;;5084167;28;20238;-75
2021/09/07 01:02:06;;;;;;;32.80;19.43;;;16.70;99.90;;;;;;5081813;28;20722;-75
2021/09/07 01:04:34;;;;;;;38.37;18.63;;;16.70;99.90;;;;;;5083835;28;20268;-75
2021/09/07 01:07:01;;;;;;;33.73;19.13;;;16.70;99.90;;;;;;5086260;28;20226;-75
2021/09/07 01:09:28;;;;;;;39.03;21.00;;;16.80;99.90;;;;;;5083209;28;20195;-75
2021/09/07 01:11:55;;;;;;;39.40;21.37;;;16.80;99.90;;;;;;5085941;28;20206;-75
2021/09/07 01:14:28;;;;;;;34.00;19.37;;;16.80;99.90;;;;;;5081452;28;20286;-75
2021/09/07 01:16:55;;;;;;;37.60;20.50;;;16.70;99.90;;;;;;5083793;28;20222;-74
2021/09/07 01:19:23;;;;;;;39.13;21.63;;;16.60;99.90;;;;;;5081528;28;20195;-75
2021/09/07 01:21:50;;;;;;;38.87;21.37;;;16.50;99.90;;;;;;5072939;28;20275;-74
2021/09/07 01:24:22;;;;;;;46.13;23.57;;;16.50;99.90;;;;;;5075062;28;20287;-75
2021/09/07 01:26:49;;;;;;;40.90;21.77;;;16.40;99.90;;;;;;5075394;28;20211;-75
2021/09/07 01:29:17;;;;;;;44.77;24.10;;;16.40;99.90;;;;;;5075542;28;20272;-75
2021/09/07 01:31:44;;;;;;;37.13;21.03;;;16.40;99.90;;;;;;5075689;28;20227;-75
2021/09/07 01:34:20;;;;;;;44.20;23.33;;;16.30;99.90;;;;;;5075452;28;20223;-75
2021/09/07 01:36:46;;;;;;;37.97;22.80;;;16.30;99.90;;;;;;5075380;28;20241;-75
2021/09/07 01:39:14;;;;;;;43.93;23.43;;;16.30;99.90;;;;;;5075062;28;20202;-75
2021/09/07 01:41:42;;;;;;;44.23;23.37;;;16.20;99.90;;;;;;5074782;28;20230;-75
2021/09/07 01:44:09;;;;;;;45.50;23.30;;;16.30;99.90;;;;;;5074840;28;20690;-75
2021/09/07 01:46:36;;;;;;;39.87;22.67;;;16.30;99.90;;;;;;5074870;28;20202;-75
2021/09/07 01:49:03;;;;;;;39.33;23.60;;;16.40;99.90;;;;;;5074679;28;20219;-75
2021/09/07 01:51:30;;;;;;;46.93;23.93;;;16.40;99.90;;;;;;5074798;28;20278;-75
2021/09/07 01:53:57;;;;;;;41.60;24.23;;;16.40;99.90;;;;;;5074619;28;20634;-75
2021/09/07 01:56:24;;;;;;;45.87;23.63;;;16.20;99.90;;;;;;5074698;28;20314;-75
2021/09/07 01:58:52;;;;;;;45.77;23.40;;;16.20;99.90;;;;;;5074876;28;20571;-75
2021/09/07 02:01:19;;;;;;;47.23;23.87;;;16.20;99.90;;;;;;5075453;28;20290;-75
2021/09/07 02:03:45;;;;;;;50.70;26.30;;;16.10;99.90;;;;;;5074957;28;20196;-75
2021/09/07 02:06:12;;;;;;;60.03;26.23;;;16.00;99.90;;;;;;5075111;28;20282;-75
2021/09/07 02:08:39;;;;;;;49.60;26.03;;;16.00;99.90;;;;;;5074575;28;20627;-75
2021/09/07 02:11:06;;;;;;;83.13;34.30;;;16.00;99.90;;;;;;5074073;28;20627;-75
2021/09/07 02:13:33;;;;;;;93.97;35.93;;;15.90;99.90;;;;;;5074313;28;20196;-75
2021/09/07 02:16:01;;;;;;;77.90;33.03;;;15.90;99.90;;;;;;5073661;28;20326;-75
2021/09/07 02:18:28;;;;;;;68.23;31.07;;;15.90;99.90;;;;;;5073853;28;20597;-75
2021/09/07 02:20:55;;;;;;;62.87;28.60;;;16.00;99.90;;;;;;5074139;28;20207;-74
2021/09/07 02:23:22;;;;;;;57.63;28.10;;;16.10;99.90;;;;;;5074272;28;20230;-75
2021/09/07 02:25:49;;;;;;;62.53;27.60;;;16.00;99.90;;;;;;5074295;28;20286;-75
2021/09/07 02:28:16;;;;;;;49.13;25.53;;;16.00;99.90;;;;;;5074275;28;20231;-75
2021/09/07 02:30:42;;;;;;;49.07;25.07;;;16.00;99.90;;;;;;5074472;28;20231;-74
2021/09/07 02:33:11;;;;;;;45.43;25.03;;;16.10;99.90;;;;;;5073766;28;20664;-75
2021/09/07 02:35:38;;;;;;;46.70;24.27;;;16.00;99.90;;;;;;5073787;28;20313;-75
2021/09/07 02:38:05;;;;;;;44.00;24.07;;;15.90;99.90;;;;;;5073590;28;20253;-75
2021/09/07 02:40:32;;;;;;;41.37;23.57;;;15.90;99.90;;;;;;5074054;28;20230;-75
2021/09/07 02:42:59;;;;;;;45.93;23.63;;;16.00;99.90;;;;;;5073621;28;20278;-75
2021/09/07 02:45:26;;;;;;;38.97;23.10;;;15.90;99.90;;;;;;5073774;28;20729;-75
2021/09/07 02:47:53;;;;;;;40.60;23.13;;;15.90;99.90;;;;;;5073982;28;20286;-74
2021/09/07 02:50:22;;;;;;;41.37;22.50;;;16.00;99.90;;;;;;5073934;28;20203;-75
2021/09/07 02:52:49;;;;;;;40.03;22.67;;;16.00;99.90;;;;;;5073319;28;20235;-75
2021/09/07 02:55:16;;;;;;;39.87;21.77;;;16.00;99.90;;;;;;5073324;28;20287;-75
2021/09/07 02:57:43;;;;;;;37.27;22.13;;;15.90;99.90;;;;;;5073385;28;20756;-75
2021/09/07 03:00:10;;;;;;;39.30;21.97;;;15.80;99.90;;;;;;5073307;28;20290;-75
2021/09/07 03:02:37;;;;;;;41.00;22.97;;;15.70;99.90;;;;;;5073535;28;20282;-75
2021/09/07 03:05:05;;;;;;;39.43;22.13;;;15.80;99.90;;;;;;5073465;28;20306;-75
2021/09/07 03:07:33;;;;;;;41.17;23.07;;;15.80;99.90;;;;;;5073151;28;20230;-75
2021/09/07 03:10:00;;;;;;;40.33;22.90;;;15.80;99.90;;;;;;5077113;28;20191;-75
2021/09/07 03:12:27;;;;;;;45.87;23.77;;;15.90;99.90;;;;;;5071163;28;20285;-75
2021/09/07 03:14:54;;;;;;;46.13;23.37;;;15.80;99.90;;;;;;5093723;28;20249;-75
2021/09/07 03:17:20;;;;;;;43.00;23.97;;;15.80;99.90;;;;;;5075518;28;20593;-75
2021/09/07 03:19:47;;;;;;;47.60;24.90;;;15.80;99.90;;;;;;5073865;28;20307;-75
2021/09/07 03:22:14;;;;;;;44.77;23.87;;;15.70;99.90;;;;;;5073070;28;20196;-75
2021/09/07 03:24:42;;;;;;;42.87;24.30;;;15.80;99.90;;;;;;5073542;28;20290;-75
2021/09/07 03:27:09;;;;;;;48.67;25.00;;;15.70;99.90;;;;;;5073577;28;20219;-75
2021/09/07 03:29:36;;;;;;;45.27;23.97;;;15.80;99.90;;;;;;5073776;28;20290;-75
2021/09/07 03:32:04;;;;;;;42.73;24.47;;;15.70;99.90;;;;;;5073517;28;20243;-74
2021/09/07 03:34:31;;;;;;;43.03;24.50;;;15.60;99.90;;;;;;5073315;28;20660;-75
2021/09/07 03:36:58;;;;;;;47.20;23.97;;;15.60;99.90;;;;;;5073050;28;20314;-75
2021/09/07 03:39:25;;;;;;;44.93;24.63;;;15.70;99.90;;;;;;5073495;28;20196;-75
2021/09/07 03:41:53;;;;;;;42.80;24.17;;;15.70;99.90;;;;;;5073442;28;20282;-75
2021/09/07 03:44:20;;;;;;;44.97;23.80;;;15.70;99.90;;;;;;5073052;28;20234;-75
2021/09/07 03:46:47;;;;;;;45.73;25.17;;;15.60;99.90;;;;;;5072750;28;20235;-75
2021/09/07 03:49:14;;;;;;;42.63;24.60;;;15.60;99.90;;;;;;5072747;28;20279;-75
2021/09/07 03:51:40;;;;;;;49.90;25.13;;;15.60;99.90;;;;;;5072977;28;20239;-75
2021/09/07 03:54:07;;;;;;;46.90;24.37;;;15.60;99.90;;;;;;5073027;28;20552;-75
2021/09/07 03:56:35;;;;;;;46.07;24.87;;;15.60;99.90;;;;;;5072695;28;20241;-75
2021/09/07 03:59:04;;;;;;;59.20;26.77;;;15.60;99.90;;;;;;5072993;28;20204;-75
2021/09/07 04:01:31;;;;;;;45.10;25.47;;;15.70;99.90;;;;;;5072517;28;20290;-75
2021/09/07 04:03:58;;;;;;;44.43;24.40;;;15.80;99.90;;;;;;5072860;28;20299;-75
2021/09/07 04:06:25;;;;;;;50.47;24.43;;;15.80;99.90;;;;;;5072554;28;20648;-75
2021/09/07 04:08:52;;;;;;;47.20;26.03;;;15.70;99.90;;;;;;5072955;28;20286;-75
2021/09/07 04:11:19;;;;;;;43.70;24.43;;;15.80;99.90;;;;;;5072540;28;20206;-75
2021/09/07 04:13:46;;;;;;;48.80;25.03;;;15.70;99.90;;;;;;5073628;28;20227;-75
2021/09/07 04:16:14;;;;;;;52.20;26.93;;;15.80;99.90;;;;;;5072976;28;20277;-75
2021/09/07 04:18:41;;;;;;;49.27;25.03;;;15.70;99.90;;;;;;5073128;28;20202;-75
2021/09/07 04:21:10;;;;;;;50.00;24.83;;;15.70;99.90;;;;;;5072526;28;20195;-75
2021/09/07 04:23:37;;;;;;;51.17;25.77;;;15.60;99.90;;;;;;5072999;28;20265;-75
2021/09/07 04:26:05;;;;;;;47.40;24.63;;;15.60;99.90;;;;;;5073641;28;20259;-75
2021/09/07 04:28:32;;;;;;;49.80;25.07;;;15.60;99.90;;;;;;5072664;28;20235;-75
2021/09/07 04:30:58;;;;;;;47.63;24.37;;;15.50;99.90;;;;;;5072733;28;20199;-75
2021/09/07 04:33:27;;;;;;;41.73;24.60;;;15.50;99.90;;;;;;5072365;28;20314;-75
2021/09/07 04:35:53;;;;;;;59.27;25.33;;;15.50;99.90;;;;;;5072475;28;20203;-75
2021/09/07 04:38:20;;;;;;;48.10;24.77;;;15.50;99.90;;;;;;5072349;28;20291;-75
2021/09/07 04:40:47;;;;;;;52.90;25.73;;;15.50;99.90;;;;;;5074359;28;20298;-75
2021/09/07 04:43:14;;;;;;;50.13;25.63;;;15.50;99.90;;;;;;5075930;28;20231;-75
2021/09/07 04:45:41;;;;;;;44.20;25.00;;;15.50;99.90;;;;;;5076063;28;20286;-75
2021/09/07 04:48:08;;;;;;;48.40;25.13;;;15.50;99.90;;;;;;5076354;28;20209;-75
2021/09/07 04:50:36;;;;;;;44.23;24.17;;;15.40;99.90;;;;;;5075900;28;20733;-75
2021/09/07 04:53:03;;;;;;;47.50;25.07;;;15.40;99.90;;;;;;5076423;28;20257;-75
2021/09/07 04:55:30;;;;;;;43.50;24.77;;;15.30;99.90;;;;;;5076286;28;20292;-75
2021/09/07 04:57:57;;;;;;;53.77;25.40;;;15.30;99.90;;;;;;5076261;28;20313;-75
2021/09/07 05:00:24;;;;;;;57.37;26.70;;;15.40;99.90;;;;;;5075752;28;20290;-75
2021/09/07 05:02:50;;;;;;;53.47;25.90;;;15.40;99.90;;;;;;5075981;28;20290;-75
2021/09/07 05:05:17;;;;;;;46.93;26.57;;;15.30;99.90;;;;;;5075818;28;20207;-75
2021/09/07 05:07:46;;;;;;;50.13;27.00;;;15.30;99.90;;;;;;5075634;28;20290;-75
2021/09/07 05:10:12;;;;;;;54.17;27.37;;;15.20;99.90;;;;;;5075592;28;20227;-75
2021/09/07 05:12:39;;;;;;;49.70;26.40;;;15.30;99.90;;;;;;5075455;28;20286;-75
2021/09/07 05:15:08;;;;;;;52.50;26.57;;;15.30;99.90;;;;;;5076417;28;20227;-75
2021/09/07 05:17:35;;;;;;;45.57;25.50;;;15.30;99.90;;;;;;5076013;28;20300;-75
2021/09/07 05:20:03;;;;;;;52.53;26.03;;;15.30;99.90;;;;;;5073523;28;20290;-75
2021/09/07 05:22:30;;;;;;;54.60;25.77;;;15.40;99.90;;;;;;5070793;28;20294;-76
2021/09/07 05:24:59;;;;;;;53.30;25.70;;;15.50;99.90;;;;;;5073873;28;20298;-76
2021/09/07 05:27:25;;;;;;;49.90;25.17;;;15.40;99.90;;;;;;5057444;28;20656;-76
2021/09/07 05:29:52;;;;;;;51.83;25.67;;;15.40;99.90;;;;;;5067570;28;20283;-76
2021/09/07 05:32:21;;;;;;;44.47;24.97;;;15.40;99.90;;;;;;5068724;28;20215;-75
2021/09/07 05:34:48;;;;;;;48.87;26.47;;;15.50;99.90;;;;;;5070570;28;20676;-75
2021/09/07 05:37:15;;;;;;;46.47;24.10;;;15.60;99.90;;;;;;5063676;28;20228;-75
2021/09/07 05:39:42;;;;;;;44.40;24.17;;;15.70;99.90;;;;;;5073531;28;20290;-75
2021/09/07 05:42:10;;;;;;;49.30;25.30;;;15.80;99.90;;;;;;5071422;28;20200;-76
2021/09/07 05:44:37;;;;;;;41.73;23.13;;;15.80;99.90;;;;;;5065319;28;20266;-75
2021/09/07 05:47:05;;;;;;;49.27;24.47;;;15.90;99.90;;;;;;5066768;28;20263;-75
2021/09/07 05:49:32;;;;;;;46.63;25.53;;;16.00;99.90;;;;;;5067202;28;20211;-75
2021/09/07 05:51:59;;;;;;;43.87;24.47;;;16.20;99.90;;;;;;5068949;28;20336;-76
2021/09/07 05:54:26;;;;;;;47.00;25.37;;;16.20;99.90;;;;;;5069729;28;20625;-76
2021/09/07 05:56:54;;;;;;;44.07;25.53;;;16.20;99.90;;;;;;5069214;28;20260;-75
2021/09/07 05:59:22;;;;;;;44.33;25.23;;;16.30;99.90;;;;;;5074547;28;20645;-75
2021/09/07 06:01:49;;;;;;;41.87;24.33;;;16.30;99.90;;;;;;5072226;28;20204;-75
2021/09/07 06:04:16;;;;;;;48.80;25.37;;;16.30;99.90;;;;;;5072349;28;20227;-75
2021/09/07 06:06:43;;;;;;;45.13;24.57;;;16.30;99.90;;;;;;5063426;28;20192;-75
2021/09/07 06:09:10;;;;;;;50.17;25.50;;;16.40;99.90;;;;;;5062372;28;20231;-75
2021/09/07 06:11:38;;;;;;;46.67;25.53;;;16.50;99.90;;;;;;5086528;28;20253;-75
2021/09/07 06:14:05;;;;;;;47.87;26.00;;;16.60;99.90;;;;;;5072996;28;20203;-75
2021/09/07 06:16:33;;;;;;;50.07;25.47;;;16.60;99.90;;;;;;5073765;28;20301;-75
2021/09/07 06:19:00;;;;;;;52.33;26.53;;;16.70;99.90;;;;;;5071734;28;20206;-75
2021/09/07 06:21:27;;;;;;;46.50;25.33;;;16.80;99.90;;;;;;5073691;28;20253;-76
2021/09/07 06:23:54;;;;;;;46.93;26.20;;;16.90;99.90;;;;;;5074177;28;20239;-75
2021/09/07 06:26:21;;;;;;;40.90;24.63;;;17.00;99.90;;;;;;5074140;28;20195;-75
2021/09/07 06:28:48;;;;;;;45.57;25.27;;;17.10;99.90;;;;;;5072833;28;20318;-75
2021/09/07 06:31:14;;;;;;;55.97;27.37;;;17.20;99.90;;;;;;5072769;28;20195;-75
2021/09/07 06:33:43;;;;;;;48.80;26.73;;;17.30;99.90;;;;;;5073250;28;20562;-75
2021/09/07 06:36:10;;;;;;;61.30;27.10;;;17.40;99.90;;;;;;5074036;28;20290;-75
2021/09/07 06:38:37;;;;;;;55.63;27.03;;;17.50;99.90;;;;;;5073528;28;20257;-75
2021/09/07 06:41:07;;;;;;;52.37;27.07;;;17.50;99.90;;;;;;5073345;28;20286;-75
2021/09/07 06:43:33;;;;;;;51.47;27.93;;;17.50;99.90;;;;;;5073798;28;20249;-75
2021/09/07 06:46:00;;;;;;;59.37;27.57;;;17.70;99.90;;;;;;5073509;28;20199;-75
2021/09/07 06:48:27;;;;;;;58.43;27.87;;;17.90;99.90;;;;;;5072977;28;20210;-75
2021/09/07 06:50:55;;;;;;;53.87;26.67;;;18.10;99.90;;;;;;5074023;28;20665;-76
2021/09/07 06:53:23;;;;;;;59.20;27.67;;;18.20;99.90;;;;;;5074149;28;20278;-75
2021/09/07 06:55:49;;;;;;;51.43;26.10;;;18.40;99.90;;;;;;5073779;28;20244;-75
2021/09/07 06:58:16;;;;;;;58.50;27.10;;;18.40;99.90;;;;;;5073937;28;20647;-75
2021/09/07 07:00:43;;;;;;;54.10;27.20;;;18.60;99.90;;;;;;5074214;28;20302;-75
2021/09/07 07:03:10;;;;;;;51.07;28.20;;;18.70;99.90;;;;;;5072724;28;20298;-75
2021/09/07 07:05:37;;;;;;;59.93;26.60;;;18.70;99.90;;;;;;5073295;28;20585;-75
2021/09/07 07:08:05;;;;;;;54.53;26.17;;;18.70;99.90;;;;;;5073565;28;20298;-75
2021/09/07 07:10:32;;;;;;;61.77;26.83;;;18.70;99.90;;;;;;5073277;28;20225;-75
2021/09/07 07:12:59;;;;;;;50.83;26.27;;;18.90;99.90;;;;;;5073432;28;20290;-75
2021/09/07 07:15:26;;;;;;;54.03;27.00;;;18.90;99.90;;;;;;5073108;28;20286;-75
2021/09/07 07:17:53;;;;;;;53.13;27.23;;;19.10;99.90;;;;;;5072788;28;20303;-75
2021/09/07 07:20:20;;;;;;;49.47;26.97;;;19.20;99.90;;;;;;5073787;28;20290;-75
2021/09/07 07:22:47;;;;;;;51.20;29.10;;;19.20;99.90;;;;;;5073681;28;20200;-75
2021/09/07 07:25:15;;;;;;;53.83;28.70;;;19.40;99.90;;;;;;5073538;28;20560;-75
2021/09/07 07:27:43;;;;;;;45.43;26.97;;;19.50;99.90;;;;;;5074126;28;20294;-76
2021/09/07 07:30:11;;;;;;;47.60;26.47;;;19.60;99.90;;;;;;5073495;28;20204;-76
2021/09/07 07:32:38;;;;;;;47.70;26.77;;;19.70;99.90;;;;;;5072923;28;20622;-75
2021/09/07 07:35:06;;;;;;;52.40;26.27;;;19.70;99.90;;;;;;5073042;28;20615;-75
2021/09/07 07:37:33;;;;;;;51.93;26.63;;;19.90;99.90;;;;;;5069490;28;20298;-75
2021/09/07 07:39:59;;;;;;;45.00;26.50;;;20.00;99.90;;;;;;5073025;28;20203;-75
2021/09/07 07:42:28;;;;;;;48.47;26.57;;;20.30;99.90;;;;;;5072807;28;20219;-76
2021/09/07 07:44:55;;;;;;;47.10;26.63;;;20.50;99.90;;;;;;5073123;28;20234;-75
2021/09/07 07:47:21;;;;;;;46.27;26.73;;;20.70;99.90;;;;;;5071886;28;20188;-75
2021/09/07 07:49:48;;;;;;;49.27;26.77;;;20.80;99.90;;;;;;5072945;28;20239;-75
2021/09/07 07:52:15;;;;;;;47.20;27.30;;;21.00;99.90;;;;;;5072866;28;20287;-75
2021/09/07 07:54:44;;;;;;;51.73;26.97;;;21.00;99.90;;;;;;5072874;28;20209;-76
2021/09/07 07:57:11;;;;;;;47.83;26.00;;;21.00;99.90;;;;;;5071833;28;20218;-76
2021/09/07 07:59:39;;;;;;;55.10;26.80;;;20.90;99.90;;;;;;5072081;28;20198;-75
2021/09/07 08:02:06;;;;;;;49.60;26.15;;;21.00;99.90;;;;;;5072523;28;20215;-75
2021/09/07 08:04:33;;;;;;;47.57;26.50;;;21.00;99.90;;;;;;5073668;28;20223;-76
2021/09/07 08:07:00;;;;;;;48.50;26.93;;;21.10;99.90;;;;;;5073003;28;20728;-75
2021/09/07 08:09:28;;;;;;;53.20;27.55;;;21.10;99.90;;;;;;5072086;28;20202;-76
2021/09/07 08:11:55;;;;;;;47.70;26.83;;;21.10;99.90;;;;;;5066693;28;20207;-76
2021/09/07 08:14:22;;;;;;;54.28;27.48;;;21.30;99.90;;;;;;5066257;28;20279;-75
2021/09/07 08:16:50;;;;;;;43.70;26.80;;;21.40;99.90;;;;;;5073039;28;20286;-76
2021/09/07 08:19:17;;;;;;;46.05;26.95;;;21.50;99.90;;;;;;5068989;28;20287;-76
2021/09/07 08:21:44;;;;;;;46.10;26.83;;;21.80;99.90;;;;;;5075914;28;20207;-76
2021/09/07 08:24:11;;;;;;;43.75;27.42;;;22.00;99.90;;;;;;5075451;28;20353;-76
2021/09/07 08:26:38;;;;;;;52.92;27.77;;;22.10;99.90;;;;;;5076141;28;20200;-76
2021/09/07 08:29:05;;;;;;;45.92;28.63;;;22.00;99.90;;;;;;5075473;28;20233;-76
2021/09/07 08:31:32;;;;;;;53.33;28.52;;;22.20;99.90;;;;;;5075645;28;20206;-76
2021/09/07 08:34:00;;;;;;;51.70;28.00;;;22.00;99.90;;;;;;5073110;28;20214;-76
2021/09/07 08:36:27;;;;;;;50.60;27.50;;;22.00;99.90;;;;;;5075828;28;20621;-75
2021/09/07 08:38:54;;;;;;;47.05;26.63;;;22.10;99.90;;;;;;5072298;28;20715;-75
2021/09/07 08:41:21;;;;;;;45.53;25.55;;;22.10;99.90;;;;;;5075452;28;20223;-76
2021/09/07 08:43:51;;;;;;;43.03;26.15;;;22.10;99.90;;;;;;5073590;28;20660;-76
2021/09/07 08:46:19;;;;;;;49.30;25.73;;;22.20;99.90;;;;;;5073367;28;20199;-75
2021/09/07 08:48:46;;;;;;;46.58;25.13;;;22.50;99.90;;;;;;5075807;28;20204;-75
2021/09/07 08:51:17;;;;;;;40.72;25.20;;;22.50;99.90;;;;;;5075421;28;20204;-75
2021/09/07 08:53:44;;;;;;;46.95;24.55;;;23.10;99.90;;;;;;5075683;28;20218;-76
2021/09/07 08:56:12;;;;;;;41.03;24.23;;;24.20;99.90;;;;;;5076000;28;20295;-76
2021/09/07 08:58:39;;;;;;;40.65;24.00;;;25.60;99.90;;;;;;5076019;28;20583;-75
2021/09/07 09:01:13;;;;;;;36.65;24.38;;;26.50;99.90;;;;;;5075643;28;20199;-76
2021/09/07 09:03:41;;;;;;;41.47;23.08;;;27.60;99.90;;;;;;5075682;28;20246;-76
2021/09/07 09:06:09;;;;;;;36.80;22.10;;;28.70;99.90;;;;;;5075368;28;20284;-75
2021/09/07 09:08:38;;;;;;;35.58;22.58;;;29.30;99.90;;;;;;5075418;28;20704;-75
2021/09/07 09:11:07;;;;;;;37.58;22.05;;;29.90;99.90;;;;;;5075279;28;20210;-76
2021/09/07 09:13:45;;;;;;;33.53;21.80;;;30.50;99.90;;;;;;5079364;28;20204;-76
2021/09/07 09:16:12;;;;;;;35.78;22.13;;;30.80;99.90;;;;;;5072285;28;20233;-75
2021/09/07 09:18:40;;;;;;;30.40;19.60;;;30.80;99.90;;;;;;5074675;28;20326;-76
2021/09/07 09:21:28;;;;;;;31.10;18.50;;;31.30;99.90;;;;;;5075749;28;20239;-76
2021/09/07 09:24:13;;;;;;;28.05;17.95;;;30.90;99.90;;;;;;5075178;28;20258;-75
2021/09/07 09:26:58;;;;;;;31.00;18.63;;;30.50;99.90;;;;;;5074488;28;20204;-76
2021/09/07 09:29:28;;;;;;;30.90;18.92;;;31.00;99.90;;;;;;5075093;28;20644;-75
2021/09/07 09:31:58;;;;;;;29.90;19.25;;;30.70;99.90;;;;;;5075416;28;20298;-75
2021/09/07 09:34:25;;;;;;;31.27;19.75;;;31.30;99.90;;;;;;5075341;28;20249;-76
2021/09/07 09:36:57;;;;;;;28.02;18.88;;;31.00;99.90;;;;;;5072300;28;20298;-76
2021/09/07 09:39:43;;;;;;;30.55;19.58;;;30.50;99.90;;;;;;5069715;28;20310;-76
2021/09/07 09:42:14;;;;;;;27.15;17.02;;;30.60;99.90;;;;;;5061160;28;20203;-75
2021/09/07 09:44:41;;;;;;;28.75;17.13;;;30.80;99.90;;;;;;5066594;28;20212;-76
2021/09/07 09:47:08;;;;;;;28.40;17.90;;;31.10;99.90;;;;;;5073602;28;20253;-76
2021/09/07 09:49:35;;;;;;;27.85;15.90;;;31.30;99.90;;;;;;5074350;28;20664;-76
2021/09/07 09:52:05;;;;;;;28.48;17.50;;;31.60;99.90;;;;;;5073398;28;20204;-76
2021/09/07 09:54:33;;;;;;;24.17;16.13;;;31.10;99.90;;;;;;5068323;28;20199;-76
2021/09/07 09:57:04;;;;;;;24.25;15.68;;;31.40;99.90;;;;;;5067632;28;20196;-75
2021/09/07 09:59:31;;;;;;;25.58;16.08;;;31.50;99.90;;;;;;5062505;28;20578;-75
2021/09/07 10:01:59;;;;;;;25.27;16.45;;;31.90;99.90;;;;;;5063023;28;20196;-75
2021/09/07 10:04:27;;;;;;;25.77;16.40;;;31.50;99.90;;;;;;5064862;28;20279;-75
2021/09/07 10:06:55;;;;;;;22.60;14.95;;;31.30;99.90;;;;;;5059236;28;20200;-76
2021/09/07 10:09:23;;;;;;;24.55;15.63;;;31.90;99.90;;;;;;5062997;28;20278;-76
2021/09/07 10:12:01;;;;;;;24.23;14.45;;;32.50;99.90;;;;;;5064315;28;20286;-75
2021/09/07 10:14:32;;;;;;;23.58;15.52;;;32.60;99.90;;;;;;5064764;28;20235;-76
2021/09/07 10:17:35;;;;;;;21.90;14.88;;;32.40;99.90;;;;;;5063258;28;20200;-75
2021/09/07 10:20:12;;;;;;;23.08;14.85;;;32.60;99.90;;;;;;5074285;28;20206;-76
2021/09/07 10:25:53;;;;;;;22.50;15.13;;;32.20;99.90;;;;;;5083222;28;20207;-75
2021/09/07 10:28:34;;;;;;;19.13;13.48;;;31.90;99.90;;;;;;5080030;28;20224;-76
2021/09/07 10:31:04;;;;;;;26.33;15.32;;;32.10;99.90;;;;;;5080260;28;20192;-76
2021/09/07 10:33:40;;;;;;;23.98;16.40;;;32.70;99.90;;;;;;5082586;28;20293;-76
2021/09/07 10:36:13;;;;;;;22.05;14.80;;;32.40;99.90;;;;;;5079942;28;20298;-76
2021/09/07 10:38:42;;;;;;;21.23;15.52;;;31.90;99.90;;;;;;5076207;28;20247;-75
2021/09/07 10:41:10;;;;;;;21.55;16.20;;;31.30;99.90;;;;;;5082942;28;20286;-75
2021/09/07 10:43:55;;;;;;;23.55;15.30;;;31.50;99.90;;;;;;5081673;28;20222;-76
2021/09/07 10:46:42;;;;;;;20.10;14.57;;;31.50;99.90;;;;;;5080740;28;20210;-75
2021/09/07 10:49:24;;;;;;;17.70;13.88;;;31.20;99.90;;;;;;5077356;28;20282;-76
2021/09/07 10:52:21;;;;;;;22.58;14.52;;;31.30;99.90;;;;;;5071065;28;20624;-75
2021/09/07 10:54:55;;;;;;;22.38;15.60;;;31.90;99.90;;;;;;5065289;28;20234;-75
2021/09/07 10:58:02;;;;;;;26.58;15.18;;;31.90;99.90;;;;;;5073454;28;20281;-76
2021/09/07 11:00:34;;;;;;;19.38;14.45;;;32.20;99.90;;;;;;5073386;28;20210;-76
2021/09/07 11:03:04;;;;;;;19.42;14.57;;;33.00;99.90;;;;;;5073697;28;20207;-76
2021/09/07 11:05:52;;;;;;;22.55;14.20;;;33.00;99.90;;;;;;5073204;28;20290;-76
2021/09/07 11:08:36;;;;;;;22.40;16.85;;;32.60;99.90;;;;;;5068620;28;20226;-76
2021/09/07 11:11:21;;;;;;;19.15;14.25;;;32.80;99.90;;;;;;5068796;28;20261;-75
2021/09/07 11:13:51;;;;;;;19.52;14.85;;;32.10;99.90;;;;;;5072820;28;20277;-76
2021/09/07 11:16:18;;;;;;;20.55;14.05;;;32.30;99.90;;;;;;5070942;28;20214;-76
2021/09/07 11:18:47;;;;;;;20.08;14.23;;;33.30;99.90;;;;;;5063980;28;20231;-76
2021/09/07 11:21:14;;;;;;;16.98;12.27;;;33.80;99.90;;;;;;5064210;28;20212;-76
2021/09/07 11:23:41;;;;;;;20.98;14.98;;;34.20;99.90;;;;;;5058008;28;20231;-76
2021/09/07 11:26:10;;;;;;;19.98;15.18;;;33.50;99.90;;;;;;5067810;28;20271;-75
2021/09/07 11:28:39;;;;;;;20.83;15.38;;;32.90;99.90;;;;;;5061850;28;20203;-76
2021/09/07 11:31:07;;;;;;;23.67;13.73;;;32.20;99.90;;;;;;5061747;28;20286;-75
2021/09/07 11:33:35;;;;;;;19.92;14.35;;;32.00;99.90;;;;;;5062555;28;20241;-76
2021/09/07 11:36:05;;;;;;;18.15;14.27;;;31.20;99.90;;;;;;5050653;28;20203;-76
2021/09/07 11:38:33;;;;;;;18.67;12.60;;;31.40;99.90;;;;;;5058203;28;20220;-75
2021/09/07 11:41:04;;;;;;;22.63;13.50;;;31.20;99.90;;;;;;5065864;28;20207;-75
2021/09/07 11:43:33;;;;;;;19.80;14.45;;;30.70;99.90;;;;;;5069372;28;20290;-75
2021/09/07 11:46:08;;;;;;;25.73;13.55;;;31.00;99.90;;;;;;5065536;28;20294;-75
2021/09/07 11:48:35;;;;;;;19.83;12.90;;;30.30;99.90;;;;;;5068685;28;20199;-76
2021/09/07 11:51:04;;;;;;;24.15;12.57;;;30.10;99.90;;;;;;5068660;28;20290;-75
2021/09/07 11:53:31;;;;;;;12.93;9.75;;;30.10;99.90;;;;;;5076686;28;20278;-75
2021/09/07 11:55:58;;;;;;;16.92;9.07;;;30.50;99.90;;;;;;5081365;28;20267;-76
2021/09/07 11:58:30;;;;;;;14.20;11.45;;;30.40;99.90;;;;;;5071186;28;20662;-75
2021/09/07 12:01:06;;;;;;;19.75;12.70;;;30.90;99.90;;;;;;5079605;28;20190;-76
2021/09/07 12:03:42;;;;;;;15.48;11.48;;;30.70;99.90;;;;;;5076983;28;20277;-76
2021/09/07 12:06:12;;;;;;;19.17;11.55;;;30.20;99.90;;;;;;5073460;28;20234;-75
2021/09/07 12:08:41;;;;;;;16.17;11.43;;;30.80;99.90;;;;;;5084189;28;20240;-75
2021/09/07 12:11:13;;;;;;;14.77;10.48;;;30.30;99.90;;;;;;5081394;28;20266;-75
2021/09/07 12:13:40;;;;;;;14.95;10.50;;;30.00;99.90;;;;;;5079025;28;20191;-75
2021/09/07 12:16:07;;;;;;;15.23;10.38;;;30.00;99.90;;;;;;5087487;28;20202;-75
2021/09/07 12:18:40;;;;;;;13.70;9.85;;;30.10;99.90;;;;;;5085398;28;20298;-76
2021/09/07 12:21:17;;;;;;;13.50;9.95;;;30.10;99.90;;;;;;5082699;28;20286;-75
2021/09/07 12:23:47;;;;;;;14.18;9.45;;;29.60;99.90;;;;;;5081363;28;20192;-75
2021/09/07 12:26:15;;;;;;;15.70;9.77;;;28.80;99.90;;;;;;5078250;28;20245;-75
2021/09/07 12:28:43;;;;;;;12.65;7.70;;;28.90;99.90;;;;;;5076018;28;20208;-76
2021/09/07 12:31:15;;;;;;;10.82;7.25;;;29.50;99.90;;;;;;5059980;28;20302;-75
2021/09/07 12:33:51;;;;;;;9.40;7.47;;;30.00;99.90;;;;;;5060082;28;20693;-76
2021/09/07 12:36:21;;;;;;;11.05;6.15;;;30.10;99.90;;;;;;5060045;28;20200;-75
2021/09/07 12:38:49;;;;;;;9.20;6.43;;;29.80;99.90;;;;;;5072797;28;20215;-75